メインページ
METAR-TAF:

METAR-TAF

空港 :

パゴパゴ国際空港

パゴパゴ, 合衆国領有小離島

緯度: 14-20S, 経度: 170-43W, 海抜: 3m

現時点の気象観測

当レポートは1時間2分前の05:50(UTC)に作成
の風 9kt
気温 27°C
湿度 79%
気圧 1012 hPa
視程: 19.3km
高度1600ftの雲は散在している, 塔状積雲.
高度4000ftの千切れ雲あり

METAR: NSTU 150550Z 10009KT 12SM SCT016TCU BKN040 27/23 A2988 RMK TCU NW-N-NE SLP120 8/800 T02730234 10296 20273 51008

時間: 19:52 (06:52 UTC)

予報

当レポートは1時間23分前の05:29(UTC)に作成
予報は15日の 06時(UTC)から 16日の 06時(UTC)まで有効
東/南東の風 9kt
視程: 10km
高度1500ftの雲は散在している
高度4000ftの千切れ雲あり
高度10000ftの千切れ雲あり
近辺でにわか雨

TAF: NSTU 150529Z 1506/1606 11009KT P6SM VCSH SCT015 BKN040 BKN100

4,000以上の空港の気象観測と天気予報(METAR報とTAF報)

利用可能な観測所は地図上に黄色い丸と赤い丸で示す。

丸の上にカーソルを重ねると観測所名を参照できる。

次にクリックすると気象観測と天気予報を参照できる。

マップの切り替え:黒色「×」印の緑ボタンをクリックして拡大、「-」印の緑ボタンをクリックして縮小、緑色の三角印をクリックして隣りの地図に切り替え


METAR-TAF: